sensor_id;sensor_type;location;lat;lon;timestamp;P1;durP1;ratioP1;P2;durP2;ratioP2
41952;SDS011;47381;28.206;112.926;2022-07-29T00:01:36;7.72;;;7.03;;
41952;SDS011;47381;28.206;112.926;2022-07-29T00:04:03;6.85;;;6.10;;
41952;SDS011;47381;28.206;112.926;2022-07-29T00:06:30;7.03;;;6.47;;
41952;SDS011;47381;28.206;112.926;2022-07-29T00:08:57;6.80;;;6.20;;
41952;SDS011;47381;28.206;112.926;2022-07-29T00:11:24;7.13;;;6.53;;
41952;SDS011;47381;28.206;112.926;2022-07-29T00:13:51;7.05;;;6.45;;
41952;SDS011;47381;28.206;112.926;2022-07-29T00:16:18;7.03;;;6.35;;
41952;SDS011;47381;28.206;112.926;2022-07-29T00:18:46;6.43;;;5.93;;
41952;SDS011;47381;28.206;112.926;2022-07-29T00:21:13;6.32;;;5.70;;
41952;SDS011;47381;28.206;112.926;2022-07-29T00:23:40;6.82;;;6.30;;
41952;SDS011;47381;28.206;112.926;2022-07-29T00:26:07;6.65;;;6.15;;
41952;SDS011;47381;28.206;112.926;2022-07-29T00:28:34;6.25;;;5.72;;
41952;SDS011;47381;28.206;112.926;2022-07-29T00:31:01;6.65;;;6.15;;
41952;SDS011;47381;28.206;112.926;2022-07-29T00:33:29;6.03;;;5.53;;
41952;SDS011;47381;28.206;112.926;2022-07-29T00:35:56;6.53;;;5.93;;
41952;SDS011;47381;28.206;112.926;2022-07-29T00:38:23;7.03;;;6.35;;
41952;SDS011;47381;28.206;112.926;2022-07-29T00:40:50;6.07;;;5.57;;
41952;SDS011;47381;28.206;112.926;2022-07-29T00:43:17;7.20;;;6.65;;
41952;SDS011;47381;28.206;112.926;2022-07-29T00:45:45;6.20;;;5.70;;
41952;SDS011;47381;28.206;112.926;2022-07-29T00:48:12;6.78;;;6.07;;
41952;SDS011;47381;28.206;112.926;2022-07-29T00:50:39;6.78;;;6.13;;
41952;SDS011;47381;28.206;112.926;2022-07-29T00:53:26;6.40;;;6.00;;
41952;SDS011;47381;28.206;112.926;2022-07-29T00:55:53;6.63;;;6.15;;
41952;SDS011;47381;28.206;112.926;2022-07-29T00:58:21;6.70;;;6.20;;
41952;SDS011;47381;28.206;112.926;2022-07-29T01:00:49;7.30;;;6.70;;
41952;SDS011;47381;28.206;112.926;2022-07-29T01:03:16;7.13;;;6.60;;
41952;SDS011;47381;28.206;112.926;2022-07-29T01:05:44;6.47;;;6.00;;
41952;SDS011;47381;28.206;112.926;2022-07-29T01:08:13;6.80;;;6.30;;
41952;SDS011;47381;28.206;112.926;2022-07-29T01:10:41;6.60;;;6.10;;
41952;SDS011;47381;28.206;112.926;2022-07-29T01:13:12;6.30;;;5.80;;
41952;SDS011;47381;28.206;112.926;2022-07-29T01:15:43;6.60;;;6.07;;
41952;SDS011;47381;28.206;112.926;2022-07-29T01:18:18;7.05;;;6.53;;
41952;SDS011;47381;28.206;112.926;2022-07-29T01:23:52;6.75;;;6.25;;
41952;SDS011;47381;28.206;112.926;2022-07-29T01:26:40;7.40;;;6.68;;
41952;SDS011;47381;28.206;112.926;2022-07-29T01:29:28;7.13;;;6.53;;
41952;SDS011;47381;28.206;112.926;2022-07-29T01:37:39;6.60;;;6.10;;
41952;SDS011;47381;28.206;112.926;2022-07-29T01:40:28;6.82;;;6.20;;
41952;SDS011;47381;28.206;112.926;2022-07-29T01:43:06;7.40;;;6.80;;
41952;SDS011;47381;28.206;112.926;2022-07-29T01:45:38;6.88;;;6.38;;
41952;SDS011;47381;28.206;112.926;2022-07-29T01:50:46;6.95;;;6.38;;
41952;SDS011;47381;28.206;112.926;2022-07-29T01:53:34;6.75;;;6.25;;
41952;SDS011;47381;28.206;112.926;2022-07-29T01:58:35;7.18;;;6.63;;
41952;SDS011;47381;28.206;112.926;2022-07-29T02:01:09;6.78;;;6.28;;
41952;SDS011;47381;28.206;112.926;2022-07-29T02:03:38;6.47;;;6.07;;
41952;SDS011;47381;28.206;112.926;2022-07-29T02:06:09;7.50;;;6.90;;
41952;SDS011;47381;28.206;112.926;2022-07-29T02:08:38;7.40;;;6.80;;
41952;SDS011;47381;28.206;112.926;2022-07-29T02:11:06;7.22;;;6.63;;
41952;SDS011;47381;28.206;112.926;2022-07-29T02:13:35;7.45;;;6.90;;
41952;SDS011;47381;28.206;112.926;2022-07-29T02:16:04;8.25;;;7.65;;
41952;SDS011;47381;28.206;112.926;2022-07-29T02:18:34;6.68;;;6.18;;
41952;SDS011;47381;28.206;112.926;2022-07-29T02:21:03;7.90;;;7.30;;
41952;SDS011;47381;28.206;112.926;2022-07-29T02:23:31;8.30;;;7.60;;
41952;SDS011;47381;28.206;112.926;2022-07-29T02:26:01;8.43;;;7.82;;
41952;SDS011;47381;28.206;112.926;2022-07-29T02:28:29;7.82;;;7.22;;
41952;SDS011;47381;28.206;112.926;2022-07-29T02:30:59;7.80;;;7.20;;
41952;SDS011;47381;28.206;112.926;2022-07-29T02:33:34;7.63;;;7.03;;
41952;SDS011;47381;28.206;112.926;2022-07-29T02:36:03;8.43;;;7.78;;
41952;SDS011;47381;28.206;112.926;2022-07-29T02:38:31;8.50;;;7.80;;
41952;SDS011;47381;28.206;112.926;2022-07-29T02:41:16;8.35;;;7.68;;
41952;SDS011;47381;28.206;112.926;2022-07-29T02:43:56;8.02;;;7.43;;
41952;SDS011;47381;28.206;112.926;2022-07-29T02:46:29;8.00;;;7.40;;
41952;SDS011;47381;28.206;112.926;2022-07-29T02:49:06;9.07;;;8.35;;
41952;SDS011;47381;28.206;112.926;2022-07-29T02:52:03;8.15;;;7.47;;
41952;SDS011;47381;28.206;112.926;2022-07-29T02:54:38;9.40;;;8.60;;
41952;SDS011;47381;28.206;112.926;2022-07-29T02:57:31;8.63;;;7.93;;
41952;SDS011;47381;28.206;112.926;2022-07-29T03:00:08;8.30;;;7.70;;
41952;SDS011;47381;28.206;112.926;2022-07-29T03:02:39;9.10;;;8.40;;
41952;SDS011;47381;28.206;112.926;2022-07-29T03:05:11;8.40;;;7.80;;
41952;SDS011;47381;28.206;112.926;2022-07-29T03:10:12;9.35;;;8.48;;
41952;SDS011;47381;28.206;112.926;2022-07-29T03:12:40;8.95;;;8.25;;
41952;SDS011;47381;28.206;112.926;2022-07-29T03:15:27;10.30;;;9.40;;
41952;SDS011;47381;28.206;112.926;2022-07-29T03:17:55;9.85;;;9.05;;
41952;SDS011;47381;28.206;112.926;2022-07-29T03:20:23;10.07;;;9.13;;
41952;SDS011;47381;28.206;112.926;2022-07-29T03:22:50;10.05;;;9.15;;
41952;SDS011;47381;28.206;112.926;2022-07-29T03:25:18;10.02;;;9.20;;
41952;SDS011;47381;28.206;112.926;2022-07-29T03:27:46;11.23;;;10.23;;
41952;SDS011;47381;28.206;112.926;2022-07-29T03:30:14;12.07;;;11.07;;
41952;SDS011;47381;28.206;112.926;2022-07-29T03:32:41;10.98;;;10.15;;
41952;SDS011;47381;28.206;112.926;2022-07-29T03:35:09;11.27;;;10.38;;
41952;SDS011;47381;28.206;112.926;2022-07-29T03:37:36;11.70;;;10.68;;
41952;SDS011;47381;28.206;112.926;2022-07-29T03:40:05;11.65;;;10.65;;
41952;SDS011;47381;28.206;112.926;2022-07-29T03:42:55;11.30;;;10.40;;
41952;SDS011;47381;28.206;112.926;2022-07-29T03:45:24;12.05;;;11.15;;
41952;SDS011;47381;28.206;112.926;2022-07-29T03:47:54;11.80;;;10.82;;
41952;SDS011;47381;28.206;112.926;2022-07-29T03:50:28;12.75;;;11.63;;
41952;SDS011;47381;28.206;112.926;2022-07-29T03:52:56;12.38;;;11.20;;
41952;SDS011;47381;28.206;112.926;2022-07-29T03:55:24;11.38;;;10.32;;
41952;SDS011;47381;28.206;112.926;2022-07-29T03:57:55;11.65;;;10.70;;
41952;SDS011;47381;28.206;112.926;2022-07-29T04:00:24;11.57;;;10.68;;
41952;SDS011;47381;28.206;112.926;2022-07-29T04:02:53;11.23;;;10.23;;
41952;SDS011;47381;28.206;112.926;2022-07-29T04:05:20;11.90;;;10.88;;
41952;SDS011;47381;28.206;112.926;2022-07-29T04:07:49;12.48;;;11.55;;
41952;SDS011;47381;28.206;112.926;2022-07-29T04:10:37;13.50;;;12.40;;
41952;SDS011;47381;28.206;112.926;2022-07-29T04:13:07;13.25;;;12.15;;
41952;SDS011;47381;28.206;112.926;2022-07-29T04:15:34;14.48;;;13.27;;
41952;SDS011;47381;28.206;112.926;2022-07-29T04:18:01;14.85;;;13.45;;
41952;SDS011;47381;28.206;112.926;2022-07-29T04:20:28;16.00;;;14.70;;
41952;SDS011;47381;28.206;112.926;2022-07-29T04:22:58;16.13;;;14.73;;
41952;SDS011;47381;28.206;112.926;2022-07-29T04:25:28;15.70;;;14.52;;
41952;SDS011;47381;28.206;112.926;2022-07-29T04:28:15;14.82;;;13.43;;
41952;SDS011;47381;28.206;112.926;2022-07-29T04:30:44;16.73;;;15.43;;
41952;SDS011;47381;28.206;112.926;2022-07-29T04:33:12;16.30;;;15.00;;
41952;SDS011;47381;28.206;112.926;2022-07-29T04:35:43;16.08;;;14.77;;
41952;SDS011;47381;28.206;112.926;2022-07-29T04:38:10;18.48;;;16.77;;
41952;SDS011;47381;28.206;112.926;2022-07-29T04:40:39;18.40;;;16.90;;
41952;SDS011;47381;28.206;112.926;2022-07-29T04:43:06;18.80;;;17.30;;
41952;SDS011;47381;28.206;112.926;2022-07-29T04:45:33;18.98;;;17.40;;
41952;SDS011;47381;28.206;112.926;2022-07-29T04:48:03;18.38;;;16.67;;
41952;SDS011;47381;28.206;112.926;2022-07-29T04:50:30;19.00;;;17.50;;
41952;SDS011;47381;28.206;112.926;2022-07-29T04:52:57;19.45;;;17.77;;
41952;SDS011;47381;28.206;112.926;2022-07-29T04:55:25;16.45;;;15.00;;
41952;SDS011;47381;28.206;112.926;2022-07-29T04:57:53;16.08;;;14.73;;
41952;SDS011;47381;28.206;112.926;2022-07-29T05:00:22;16.30;;;14.80;;
41952;SDS011;47381;28.206;112.926;2022-07-29T05:02:49;14.18;;;12.98;;
41952;SDS011;47381;28.206;112.926;2022-07-29T05:05:17;15.18;;;13.77;;
41952;SDS011;47381;28.206;112.926;2022-07-29T05:08:06;13.15;;;12.05;;
41952;SDS011;47381;28.206;112.926;2022-07-29T05:10:33;13.80;;;12.60;;
41952;SDS011;47381;28.206;112.926;2022-07-29T05:13:04;14.68;;;13.27;;
41952;SDS011;47381;28.206;112.926;2022-07-29T05:15:32;12.48;;;10.98;;
41952;SDS011;47381;28.206;112.926;2022-07-29T05:18:00;13.00;;;12.00;;
41952;SDS011;47381;28.206;112.926;2022-07-29T05:20:47;12.05;;;11.05;;
41952;SDS011;47381;28.206;112.926;2022-07-29T05:23:17;12.68;;;11.68;;
41952;SDS011;47381;28.206;112.926;2022-07-29T05:25:44;12.07;;;11.15;;
41952;SDS011;47381;28.206;112.926;2022-07-29T05:28:14;11.52;;;10.52;;
41952;SDS011;47381;28.206;112.926;2022-07-29T05:30:42;11.73;;;10.73;;
41952;SDS011;47381;28.206;112.926;2022-07-29T05:33:10;12.73;;;11.82;;
41952;SDS011;47381;28.206;112.926;2022-07-29T05:35:37;11.73;;;10.68;;
41952;SDS011;47381;28.206;112.926;2022-07-29T05:38:08;11.73;;;10.63;;
41952;SDS011;47381;28.206;112.926;2022-07-29T05:40:35;10.90;;;9.95;;
41952;SDS011;47381;28.206;112.926;2022-07-29T05:43:05;10.40;;;9.60;;
41952;SDS011;47381;28.206;112.926;2022-07-29T05:45:32;10.65;;;9.80;;
41952;SDS011;47381;28.206;112.926;2022-07-29T05:48:00;11.30;;;10.20;;
41952;SDS011;47381;28.206;112.926;2022-07-29T05:50:30;10.93;;;9.93;;
41952;SDS011;47381;28.206;112.926;2022-07-29T05:53:09;11.13;;;10.20;;
41952;SDS011;47381;28.206;112.926;2022-07-29T05:55:36;10.88;;;9.98;;
41952;SDS011;47381;28.206;112.926;2022-07-29T05:58:03;11.23;;;10.32;;
41952;SDS011;47381;28.206;112.926;2022-07-29T06:00:31;10.52;;;9.70;;
41952;SDS011;47381;28.206;112.926;2022-07-29T06:02:58;11.35;;;10.25;;
41952;SDS011;47381;28.206;112.926;2022-07-29T06:05:25;10.13;;;9.23;;
41952;SDS011;47381;28.206;112.926;2022-07-29T06:07:52;11.32;;;10.43;;
41952;SDS011;47381;28.206;112.926;2022-07-29T06:10:19;10.10;;;9.30;;
41952;SDS011;47381;28.206;112.926;2022-07-29T06:12:50;10.00;;;9.10;;
41952;SDS011;47381;28.206;112.926;2022-07-29T06:15:18;9.15;;;8.35;;
41952;SDS011;47381;28.206;112.926;2022-07-29T06:18:05;10.60;;;9.80;;
41952;SDS011;47381;28.206;112.926;2022-07-29T06:20:35;10.40;;;9.50;;
41952;SDS011;47381;28.206;112.926;2022-07-29T06:23:02;10.07;;;9.18;;
41952;SDS011;47381;28.206;112.926;2022-07-29T06:25:30;9.50;;;8.80;;
41952;SDS011;47381;28.206;112.926;2022-07-29T06:28:02;10.07;;;9.27;;
41952;SDS011;47381;28.206;112.926;2022-07-29T06:30:29;9.18;;;8.48;;
41952;SDS011;47381;28.206;112.926;2022-07-29T06:33:07;9.90;;;9.10;;
41952;SDS011;47381;28.206;112.926;2022-07-29T06:35:37;10.25;;;9.48;;
41952;SDS011;47381;28.206;112.926;2022-07-29T06:38:04;9.32;;;8.60;;
41952;SDS011;47381;28.206;112.926;2022-07-29T06:40:32;10.23;;;9.43;;
41952;SDS011;47381;28.206;112.926;2022-07-29T06:43:18;10.13;;;9.25;;
41952;SDS011;47381;28.206;112.926;2022-07-29T06:45:48;9.98;;;9.23;;
41952;SDS011;47381;28.206;112.926;2022-07-29T06:48:19;10.10;;;9.20;;
41952;SDS011;47381;28.206;112.926;2022-07-29T06:50:46;10.23;;;9.18;;
41952;SDS011;47381;28.206;112.926;2022-07-29T06:53:13;9.80;;;8.90;;
41952;SDS011;47381;28.206;112.926;2022-07-29T06:55:40;9.73;;;8.95;;
41952;SDS011;47381;28.206;112.926;2022-07-29T06:58:08;9.77;;;9.05;;
41952;SDS011;47381;28.206;112.926;2022-07-29T07:00:42;9.48;;;8.77;;
41952;SDS011;47381;28.206;112.926;2022-07-29T07:03:14;9.45;;;8.70;;
41952;SDS011;47381;28.206;112.926;2022-07-29T07:05:42;9.70;;;9.00;;
41952;SDS011;47381;28.206;112.926;2022-07-29T07:08:10;8.90;;;8.20;;
41952;SDS011;47381;28.206;112.926;2022-07-29T07:10:38;9.18;;;8.48;;
41952;SDS011;47381;28.206;112.926;2022-07-29T07:13:09;9.68;;;8.63;;
41952;SDS011;47381;28.206;112.926;2022-07-29T07:15:43;9.32;;;8.63;;
41952;SDS011;47381;28.206;112.926;2022-07-29T07:18:13;9.60;;;8.90;;
41952;SDS011;47381;28.206;112.926;2022-07-29T07:20:42;8.73;;;8.02;;
41952;SDS011;47381;28.206;112.926;2022-07-29T07:23:13;8.80;;;8.10;;
41952;SDS011;47381;28.206;112.926;2022-07-29T07:25:40;8.65;;;7.95;;
41952;SDS011;47381;28.206;112.926;2022-07-29T07:28:07;8.85;;;8.15;;
41952;SDS011;47381;28.206;112.926;2022-07-29T07:30:36;8.48;;;7.88;;
41952;SDS011;47381;28.206;112.926;2022-07-29T07:33:03;9.38;;;8.57;;
41952;SDS011;47381;28.206;112.926;2022-07-29T07:35:32;8.77;;;8.07;;
41952;SDS011;47381;28.206;112.926;2022-07-29T07:37:59;9.23;;;8.48;;
41952;SDS011;47381;28.206;112.926;2022-07-29T07:40:31;8.85;;;8.25;;
41952;SDS011;47381;28.206;112.926;2022-07-29T07:42:58;8.98;;;8.32;;
41952;SDS011;47381;28.206;112.926;2022-07-29T07:45:28;8.23;;;7.63;;
41952;SDS011;47381;28.206;112.926;2022-07-29T07:48:06;8.75;;;8.05;;
41952;SDS011;47381;28.206;112.926;2022-07-29T07:50:36;9.07;;;8.38;;
41952;SDS011;47381;28.206;112.926;2022-07-29T07:53:03;9.18;;;8.48;;
41952;SDS011;47381;28.206;112.926;2022-07-29T07:55:31;8.80;;;8.10;;
41952;SDS011;47381;28.206;112.926;2022-07-29T07:58:00;9.63;;;8.77;;
41952;SDS011;47381;28.206;112.926;2022-07-29T08:00:27;9.20;;;8.50;;
41952;SDS011;47381;28.206;112.926;2022-07-29T08:02:54;8.40;;;7.80;;
41952;SDS011;47381;28.206;112.926;2022-07-29T08:05:21;8.88;;;8.18;;
41952;SDS011;47381;28.206;112.926;2022-07-29T08:07:51;9.02;;;8.32;;
41952;SDS011;47381;28.206;112.926;2022-07-29T08:10:19;8.75;;;8.05;;
41952;SDS011;47381;28.206;112.926;2022-07-29T08:13:05;9.25;;;8.57;;
41952;SDS011;47381;28.206;112.926;2022-07-29T08:15:38;8.85;;;8.07;;
41952;SDS011;47381;28.206;112.926;2022-07-29T08:18:06;8.68;;;7.90;;
41952;SDS011;47381;28.206;112.926;2022-07-29T08:20:36;8.50;;;7.90;;
41952;SDS011;47381;28.206;112.926;2022-07-29T08:23:04;8.20;;;7.60;;
41952;SDS011;47381;28.206;112.926;2022-07-29T08:25:36;8.93;;;8.23;;
41952;SDS011;47381;28.206;112.926;2022-07-29T08:28:04;8.40;;;7.80;;
41952;SDS011;47381;28.206;112.926;2022-07-29T08:30:31;8.23;;;7.55;;
41952;SDS011;47381;28.206;112.926;2022-07-29T08:35:47;8.32;;;7.72;;
41952;SDS011;47381;28.206;112.926;2022-07-29T08:38:44;7.63;;;7.05;;
41952;SDS011;47381;28.206;112.926;2022-07-29T08:41:16;8.52;;;7.82;;
41952;SDS011;47381;28.206;112.926;2022-07-29T08:46:58;8.25;;;7.60;;
41952;SDS011;47381;28.206;112.926;2022-07-29T08:49:37;7.93;;;7.32;;
41952;SDS011;47381;28.206;112.926;2022-07-29T08:52:03;8.27;;;7.68;;
41952;SDS011;47381;28.206;112.926;2022-07-29T08:54:48;8.98;;;8.18;;
41952;SDS011;47381;28.206;112.926;2022-07-29T08:57:15;8.32;;;7.72;;
41952;SDS011;47381;28.206;112.926;2022-07-29T08:59:43;8.60;;;7.93;;
41952;SDS011;47381;28.206;112.926;2022-07-29T09:02:33;8.38;;;7.63;;
41952;SDS011;47381;28.206;112.926;2022-07-29T09:05:24;8.05;;;7.35;;
41952;SDS011;47381;28.206;112.926;2022-07-29T09:07:52;8.15;;;7.57;;
41952;SDS011;47381;28.206;112.926;2022-07-29T09:10:20;7.57;;;6.97;;
41952;SDS011;47381;28.206;112.926;2022-07-29T09:12:47;7.32;;;6.72;;
41952;SDS011;47381;28.206;112.926;2022-07-29T09:15:14;7.45;;;6.85;;
41952;SDS011;47381;28.206;112.926;2022-07-29T09:17:46;8.20;;;7.60;;
41952;SDS011;47381;28.206;112.926;2022-07-29T09:20:18;7.80;;;7.30;;
41952;SDS011;47381;28.206;112.926;2022-07-29T09:22:49;7.72;;;7.22;;
41952;SDS011;47381;28.206;112.926;2022-07-29T09:25:36;8.18;;;7.63;;
41952;SDS011;47381;28.206;112.926;2022-07-29T09:28:15;7.65;;;7.15;;
41952;SDS011;47381;28.206;112.926;2022-07-29T09:30:50;8.07;;;7.47;;
41952;SDS011;47381;28.206;112.926;2022-07-29T09:33:19;7.70;;;7.10;;
41952;SDS011;47381;28.206;112.926;2022-07-29T09:35:58;7.28;;;6.72;;
41952;SDS011;47381;28.206;112.926;2022-07-29T09:38:28;7.25;;;6.65;;
41952;SDS011;47381;28.206;112.926;2022-07-29T09:40:56;7.75;;;7.20;;
41952;SDS011;47381;28.206;112.926;2022-07-29T09:43:24;6.70;;;6.20;;
41952;SDS011;47381;28.206;112.926;2022-07-29T09:45:51;7.25;;;6.75;;
41952;SDS011;47381;28.206;112.926;2022-07-29T09:48:19;7.30;;;6.80;;
41952;SDS011;47381;28.206;112.926;2022-07-29T09:50:49;7.50;;;7.00;;
41952;SDS011;47381;28.206;112.926;2022-07-29T09:53:38;7.03;;;6.57;;
41952;SDS011;47381;28.206;112.926;2022-07-29T09:56:05;6.97;;;6.47;;
41952;SDS011;47381;28.206;112.926;2022-07-29T09:58:32;6.65;;;6.18;;
41952;SDS011;47381;28.206;112.926;2022-07-29T10:01:00;6.68;;;6.18;;
41952;SDS011;47381;28.206;112.926;2022-07-29T10:03:28;7.35;;;6.80;;
41952;SDS011;47381;28.206;112.926;2022-07-29T10:06:16;6.97;;;6.47;;
41952;SDS011;47381;28.206;112.926;2022-07-29T10:08:43;7.07;;;6.57;;
41952;SDS011;47381;28.206;112.926;2022-07-29T10:11:14;7.38;;;6.88;;
41952;SDS011;47381;28.206;112.926;2022-07-29T10:13:45;7.40;;;6.80;;
41952;SDS011;47381;28.206;112.926;2022-07-29T10:16:14;7.45;;;6.85;;
41952;SDS011;47381;28.206;112.926;2022-07-29T10:18:42;7.07;;;6.55;;
41952;SDS011;47381;28.206;112.926;2022-07-29T10:21:12;6.53;;;6.07;;
41952;SDS011;47381;28.206;112.926;2022-07-29T10:23:39;6.32;;;5.82;;
41952;SDS011;47381;28.206;112.926;2022-07-29T10:26:08;7.00;;;6.40;;
41952;SDS011;47381;28.206;112.926;2022-07-29T10:28:38;6.68;;;6.18;;
41952;SDS011;47381;28.206;112.926;2022-07-29T10:31:06;7.13;;;6.63;;
41952;SDS011;47381;28.206;112.926;2022-07-29T10:37:02;6.75;;;6.25;;
41952;SDS011;47381;28.206;112.926;2022-07-29T10:42:56;7.68;;;7.13;;
41952;SDS011;47381;28.206;112.926;2022-07-29T10:45:44;7.43;;;6.93;;
41952;SDS011;47381;28.206;112.926;2022-07-29T10:48:13;6.55;;;6.05;;
41952;SDS011;47381;28.206;112.926;2022-07-29T10:50:53;8.63;;;7.93;;
41952;SDS011;47381;28.206;112.926;2022-07-29T10:53:22;7.47;;;6.88;;
41952;SDS011;47381;28.206;112.926;2022-07-29T10:55:51;7.25;;;6.70;;
41952;SDS011;47381;28.206;112.926;2022-07-29T10:58:19;7.45;;;6.90;;
41952;SDS011;47381;28.206;112.926;2022-07-29T11:00:51;6.82;;;6.32;;
41952;SDS011;47381;28.206;112.926;2022-07-29T11:06:12;7.13;;;6.63;;
41952;SDS011;47381;28.206;112.926;2022-07-29T11:08:40;7.47;;;6.93;;
41952;SDS011;47381;28.206;112.926;2022-07-29T11:13:52;7.55;;;6.88;;
41952;SDS011;47381;28.206;112.926;2022-07-29T11:16:22;7.50;;;6.80;;
41952;SDS011;47381;28.206;112.926;2022-07-29T11:21:41;7.50;;;6.97;;
41952;SDS011;47381;28.206;112.926;2022-07-29T11:28:07;7.90;;;7.30;;
41952;SDS011;47381;28.206;112.926;2022-07-29T11:30:52;8.35;;;7.57;;
41952;SDS011;47381;28.206;112.926;2022-07-29T11:33:32;7.60;;;6.82;;
41952;SDS011;47381;28.206;112.926;2022-07-29T11:36:13;7.97;;;7.28;;
41952;SDS011;47381;28.206;112.926;2022-07-29T11:38:41;7.55;;;6.95;;
41952;SDS011;47381;28.206;112.926;2022-07-29T11:41:26;7.65;;;7.00;;
41952;SDS011;47381;28.206;112.926;2022-07-29T11:43:58;7.90;;;7.30;;
41952;SDS011;47381;28.206;112.926;2022-07-29T11:49:24;8.02;;;7.30;;
41952;SDS011;47381;28.206;112.926;2022-07-29T11:51:56;8.40;;;7.60;;
41952;SDS011;47381;28.206;112.926;2022-07-29T11:56:57;7.57;;;6.90;;
41952;SDS011;47381;28.206;112.926;2022-07-29T11:59:45;7.55;;;6.78;;
41952;SDS011;47381;28.206;112.926;2022-07-29T12:02:13;7.95;;;7.15;;
41952;SDS011;47381;28.206;112.926;2022-07-29T12:04:56;7.50;;;6.90;;
41952;SDS011;47381;28.206;112.926;2022-07-29T12:07:31;7.63;;;6.95;;
41952;SDS011;47381;28.206;112.926;2022-07-29T12:10:00;7.68;;;7.03;;
41952;SDS011;47381;28.206;112.926;2022-07-29T12:12:28;7.65;;;7.05;;
41952;SDS011;47381;28.206;112.926;2022-07-29T12:14:55;7.75;;;7.05;;
41952;SDS011;47381;28.206;112.926;2022-07-29T12:17:29;8.10;;;7.40;;
41952;SDS011;47381;28.206;112.926;2022-07-29T12:20:01;7.65;;;7.05;;
41952;SDS011;47381;28.206;112.926;2022-07-29T12:22:35;8.25;;;7.50;;
41952;SDS011;47381;28.206;112.926;2022-07-29T12:25:07;7.75;;;7.05;;
41952;SDS011;47381;28.206;112.926;2022-07-29T12:27:36;7.80;;;7.00;;
41952;SDS011;47381;28.206;112.926;2022-07-29T12:30:09;8.13;;;7.47;;
41952;SDS011;47381;28.206;112.926;2022-07-29T12:32:40;7.63;;;7.03;;
41952;SDS011;47381;28.206;112.926;2022-07-29T12:35:15;7.45;;;6.82;;
41952;SDS011;47381;28.206;112.926;2022-07-29T12:37:47;8.02;;;7.32;;
41952;SDS011;47381;28.206;112.926;2022-07-29T12:40:16;7.65;;;7.00;;
41952;SDS011;47381;28.206;112.926;2022-07-29T12:45:53;7.07;;;6.57;;
41952;SDS011;47381;28.206;112.926;2022-07-29T12:48:35;6.65;;;6.15;;
41952;SDS011;47381;28.206;112.926;2022-07-29T12:51:04;7.80;;;7.10;;
41952;SDS011;47381;28.206;112.926;2022-07-29T12:53:33;7.20;;;6.70;;
41952;SDS011;47381;28.206;112.926;2022-07-29T12:56:01;6.60;;;6.05;;
41952;SDS011;47381;28.206;112.926;2022-07-29T12:58:41;8.05;;;7.25;;
41952;SDS011;47381;28.206;112.926;2022-07-29T13:01:13;7.80;;;7.20;;
41952;SDS011;47381;28.206;112.926;2022-07-29T13:09:08;7.72;;;7.00;;
41952;SDS011;47381;28.206;112.926;2022-07-29T13:14:09;7.40;;;6.70;;
41952;SDS011;47381;28.206;112.926;2022-07-29T13:16:59;7.60;;;6.85;;
41952;SDS011;47381;28.206;112.926;2022-07-29T13:19:37;7.38;;;6.75;;
41952;SDS011;47381;28.206;112.926;2022-07-29T13:22:14;8.07;;;7.35;;
41952;SDS011;47381;28.206;112.926;2022-07-29T13:27:21;8.05;;;7.35;;
41952;SDS011;47381;28.206;112.926;2022-07-29T13:29:50;7.78;;;7.03;;
41952;SDS011;47381;28.206;112.926;2022-07-29T13:32:37;7.57;;;6.88;;
41952;SDS011;47381;28.206;112.926;2022-07-29T13:35:06;7.28;;;6.78;;
41952;SDS011;47381;28.206;112.926;2022-07-29T13:37:35;8.20;;;7.40;;
41952;SDS011;47381;28.206;112.926;2022-07-29T13:40:06;7.13;;;6.50;;
41952;SDS011;47381;28.206;112.926;2022-07-29T13:42:34;7.25;;;6.65;;
41952;SDS011;47381;28.206;112.926;2022-07-29T13:45:05;8.32;;;7.47;;
41952;SDS011;47381;28.206;112.926;2022-07-29T13:47:33;8.13;;;7.43;;
41952;SDS011;47381;28.206;112.926;2022-07-29T13:50:00;8.15;;;7.47;;
41952;SDS011;47381;28.206;112.926;2022-07-29T13:52:47;7.78;;;7.10;;
41952;SDS011;47381;28.206;112.926;2022-07-29T13:55:16;7.32;;;6.75;;
41952;SDS011;47381;28.206;112.926;2022-07-29T13:57:43;8.25;;;7.55;;
41952;SDS011;47381;28.206;112.926;2022-07-29T14:00:13;9.77;;;8.88;;
41952;SDS011;47381;28.206;112.926;2022-07-29T14:02:44;8.77;;;7.88;;
41952;SDS011;47381;28.206;112.926;2022-07-29T14:05:13;8.20;;;7.50;;
41952;SDS011;47381;28.206;112.926;2022-07-29T14:10:12;8.07;;;7.38;;
41952;SDS011;47381;28.206;112.926;2022-07-29T14:12:39;8.05;;;7.35;;
41952;SDS011;47381;28.206;112.926;2022-07-29T14:15:26;8.23;;;7.55;;
41952;SDS011;47381;28.206;112.926;2022-07-29T14:17:57;8.88;;;7.97;;
41952;SDS011;47381;28.206;112.926;2022-07-29T14:20:46;8.00;;;7.38;;
41952;SDS011;47381;28.206;112.926;2022-07-29T14:23:13;8.50;;;7.80;;
41952;SDS011;47381;28.206;112.926;2022-07-29T14:25:40;7.60;;;7.00;;
41952;SDS011;47381;28.206;112.926;2022-07-29T14:28:08;8.13;;;7.40;;
41952;SDS011;47381;28.206;112.926;2022-07-29T14:30:35;8.65;;;7.88;;
41952;SDS011;47381;28.206;112.926;2022-07-29T14:33:02;7.53;;;6.90;;
41952;SDS011;47381;28.206;112.926;2022-07-29T14:35:31;8.02;;;7.22;;
41952;SDS011;47381;28.206;112.926;2022-07-29T14:37:58;8.00;;;7.20;;
41952;SDS011;47381;28.206;112.926;2022-07-29T14:40:30;7.35;;;6.68;;
41952;SDS011;47381;28.206;112.926;2022-07-29T14:42:57;7.95;;;7.25;;
41952;SDS011;47381;28.206;112.926;2022-07-29T14:45:24;7.80;;;7.10;;
41952;SDS011;47381;28.206;112.926;2022-07-29T14:47:54;7.55;;;6.85;;
41952;SDS011;47381;28.206;112.926;2022-07-29T14:50:21;7.82;;;7.13;;
41952;SDS011;47381;28.206;112.926;2022-07-29T14:52:50;7.35;;;6.65;;
41952;SDS011;47381;28.206;112.926;2022-07-29T14:55:41;7.30;;;6.70;;
41952;SDS011;47381;28.206;112.926;2022-07-29T14:58:08;7.97;;;7.18;;
41952;SDS011;47381;28.206;112.926;2022-07-29T15:00:36;7.00;;;6.50;;
41952;SDS011;47381;28.206;112.926;2022-07-29T15:03:03;7.20;;;6.65;;
41952;SDS011;47381;28.206;112.926;2022-07-29T15:05:31;7.35;;;6.65;;
41952;SDS011;47381;28.206;112.926;2022-07-29T15:08:02;7.45;;;6.85;;
41952;SDS011;47381;28.206;112.926;2022-07-29T15:10:30;8.00;;;7.35;;
41952;SDS011;47381;28.206;112.926;2022-07-29T15:12:57;7.22;;;6.63;;
41952;SDS011;47381;28.206;112.926;2022-07-29T15:15:24;8.38;;;7.78;;
41952;SDS011;47381;28.206;112.926;2022-07-29T15:17:58;7.53;;;6.93;;
41952;SDS011;47381;28.206;112.926;2022-07-29T15:20:25;7.50;;;6.90;;
41952;SDS011;47381;28.206;112.926;2022-07-29T15:22:56;7.13;;;6.53;;
41952;SDS011;47381;28.206;112.926;2022-07-29T15:25:24;8.52;;;7.72;;
41952;SDS011;47381;28.206;112.926;2022-07-29T15:27:53;7.18;;;6.50;;
41952;SDS011;47381;28.206;112.926;2022-07-29T15:30:21;7.25;;;6.60;;
41952;SDS011;47381;28.206;112.926;2022-07-29T15:32:49;7.47;;;6.88;;
41952;SDS011;47381;28.206;112.926;2022-07-29T15:35:16;7.85;;;7.15;;
41952;SDS011;47381;28.206;112.926;2022-07-29T15:37:44;8.02;;;7.32;;
41952;SDS011;47381;28.206;112.926;2022-07-29T15:40:13;7.20;;;6.50;;
41952;SDS011;47381;28.206;112.926;2022-07-29T15:42:46;7.53;;;6.93;;